createdAt,value
2022-11-12T00:02:07.503Z,21.40
2022-11-12T00:04:54.297Z,15.70
2022-11-12T00:07:40.984Z,15.80
2022-11-12T00:10:27.326Z,18.80
2022-11-12T00:13:14.438Z,16.10
2022-11-12T00:16:01.161Z,16.50
2022-11-12T00:18:48.271Z,16.50
2022-11-12T00:21:34.770Z,20.00
2022-11-12T00:24:20.985Z,17.90
2022-11-12T00:27:07.167Z,18.40
2022-11-12T00:29:53.469Z,20.60
2022-11-12T00:32:39.762Z,20.70
2022-11-12T00:35:26.049Z,18.80
2022-11-12T00:38:12.657Z,16.70
2022-11-12T00:41:00.675Z,16.20
2022-11-12T00:43:47.016Z,23.50
2022-11-12T00:46:33.197Z,17.50
2022-11-12T00:49:19.406Z,18.40
2022-11-12T00:52:05.674Z,23.70
2022-11-12T00:54:52.141Z,19.60
2022-11-12T00:57:38.781Z,19.60
2022-11-12T01:00:25.712Z,16.90
2022-11-12T01:03:12.309Z,17.40
2022-11-12T01:06:13.649Z,20.40
2022-11-12T01:09:00.377Z,21.40
2022-11-12T01:11:48.099Z,18.10
2022-11-12T01:14:36.071Z,23.10
2022-11-12T01:17:22.552Z,22.70
2022-11-12T01:20:08.982Z,20.10
2022-11-12T01:22:55.594Z,19.50
2022-11-12T01:25:41.744Z,21.60
2022-11-12T01:28:29.467Z,19.00
2022-11-12T01:31:35.701Z,21.50
2022-11-12T01:34:21.927Z,20.10
2022-11-12T01:37:08.322Z,20.60
2022-11-12T01:39:54.649Z,22.60
2022-11-12T01:42:40.911Z,24.70
2022-11-12T01:45:27.062Z,18.30
2022-11-12T01:48:29.907Z,15.40
2022-11-12T01:51:16.606Z,17.10
2022-11-12T01:54:10.858Z,18.50
2022-11-12T01:56:58.617Z,23.50
2022-11-12T01:59:49.475Z,19.10
2022-11-12T02:02:37.310Z,21.00
2022-11-12T02:05:26.942Z,20.70
2022-11-12T02:08:13.874Z,16.70
2022-11-12T02:11:14.042Z,20.80
2022-11-12T02:14:03.545Z,18.20
2022-11-12T02:16:50.312Z,15.60
2022-11-12T02:19:37.941Z,20.10
2022-11-12T02:22:24.297Z,17.30
2022-11-12T02:25:18.665Z,18.10
2022-11-12T02:28:08.195Z,17.00
2022-11-12T02:30:54.837Z,20.00
2022-11-12T02:33:41.373Z,17.90
2022-11-12T02:36:28.436Z,13.50
2022-11-12T02:39:14.664Z,14.60
2022-11-12T02:42:00.829Z,19.40
2022-11-12T02:44:47.043Z,15.60
2022-11-12T02:47:33.213Z,18.60
2022-11-12T02:50:19.911Z,17.20
2022-11-12T02:53:06.128Z,15.00
2022-11-12T02:55:52.484Z,23.30
2022-11-12T02:58:38.859Z,17.50
2022-11-12T03:01:25.394Z,21.60
2022-11-12T03:04:11.670Z,23.80
2022-11-12T03:06:58.057Z,21.50
2022-11-12T03:09:44.549Z,20.20
2022-11-12T03:12:32.873Z,21.10
2022-11-12T03:15:19.772Z,20.70
2022-11-12T03:18:06.238Z,18.70
2022-11-12T03:20:53.249Z,20.70
2022-11-12T03:23:39.415Z,16.70
2022-11-12T03:26:25.797Z,21.80
2022-11-12T03:29:12.015Z,23.60
2022-11-12T03:31:58.075Z,15.00
2022-11-12T03:34:44.197Z,17.90
2022-11-12T03:37:30.502Z,19.30
2022-11-12T03:40:18.371Z,18.90
2022-11-12T03:43:04.962Z,20.50
2022-11-12T03:45:51.493Z,21.60
2022-11-12T03:48:38.299Z,20.30
2022-11-12T03:51:25.150Z,24.70
2022-11-12T03:54:11.583Z,24.30
2022-11-12T03:56:57.818Z,20.60
2022-11-12T03:59:44.197Z,21.40
2022-11-12T04:02:30.472Z,21.90
2022-11-12T04:05:35.800Z,23.00
2022-11-12T04:08:37.102Z,24.60
2022-11-12T04:11:23.625Z,20.10
2022-11-12T04:14:10.064Z,24.80
2022-11-12T04:17:15.427Z,21.60
2022-11-12T04:20:20.469Z,23.10
2022-11-12T04:23:07.245Z,27.00
2022-11-12T04:26:12.120Z,25.00
2022-11-12T04:29:16.698Z,23.80
2022-11-12T04:32:03.157Z,27.10
2022-11-12T04:34:49.733Z,26.50
2022-11-12T04:37:46.202Z,24.20
2022-11-12T04:40:51.192Z,22.70
2022-11-12T04:43:56.448Z,21.90
2022-11-12T04:46:42.772Z,26.80
2022-11-12T04:49:29.110Z,19.50
2022-11-12T04:52:15.892Z,23.50
2022-11-12T04:55:02.000Z,20.20
2022-11-12T04:57:48.342Z,27.10
2022-11-12T05:00:34.778Z,26.20
2022-11-12T05:03:21.187Z,22.70
2022-11-12T05:06:28.222Z,29.60
2022-11-12T05:09:14.818Z,21.70
2022-11-12T05:12:02.440Z,24.90
2022-11-12T05:14:48.774Z,25.70
2022-11-12T05:17:35.547Z,21.10
2022-11-12T05:20:21.825Z,22.10
2022-11-12T05:23:08.111Z,25.40
2022-11-12T05:25:54.732Z,18.30
2022-11-12T05:28:41.226Z,25.50
2022-11-12T05:31:27.651Z,22.30
2022-11-12T05:34:15.534Z,24.10
2022-11-12T05:37:07.489Z,23.00
2022-11-12T05:39:53.912Z,24.20
2022-11-12T05:42:40.213Z,18.60
2022-11-12T05:45:26.602Z,24.70
2022-11-12T05:48:12.805Z,19.30
2022-11-12T05:51:12.442Z,19.80
2022-11-12T05:54:01.122Z,21.20
2022-11-12T05:56:47.386Z,22.90
2022-11-12T05:59:34.065Z,22.80
2022-11-12T06:02:20.841Z,20.60
2022-11-12T06:05:07.437Z,21.00
2022-11-12T06:07:54.785Z,23.30
2022-11-12T06:10:41.479Z,23.30
2022-11-12T06:13:28.354Z,25.60
2022-11-12T06:16:14.736Z,23.30
2022-11-12T06:19:01.251Z,22.50
2022-11-12T06:21:47.617Z,22.80
2022-11-12T06:24:35.491Z,23.20
2022-11-12T06:27:24.128Z,24.60
2022-11-12T06:30:11.621Z,25.60
2022-11-12T06:32:58.022Z,19.70
2022-11-12T06:35:44.482Z,24.10
2022-11-12T06:38:37.074Z,22.10
2022-11-12T06:41:23.980Z,21.10
2022-11-12T06:44:10.537Z,19.70
2022-11-12T06:46:56.923Z,27.10
2022-11-12T06:49:43.289Z,22.30
2022-11-12T06:52:29.439Z,23.50
2022-11-12T06:55:16.000Z,24.00
2022-11-12T06:58:02.970Z,23.10
2022-11-12T07:00:49.837Z,21.50
2022-11-12T07:03:37.641Z,22.00
2022-11-12T07:06:24.794Z,28.80
2022-11-12T07:09:12.306Z,21.60
2022-11-12T07:11:59.389Z,23.10
2022-11-12T07:14:46.872Z,20.70
2022-11-12T07:17:34.188Z,23.40
2022-11-12T07:20:20.989Z,24.50
2022-11-12T07:23:08.217Z,21.50
2022-11-12T07:26:02.015Z,18.90
2022-11-12T07:28:52.240Z,20.90
2022-11-12T07:31:38.887Z,19.40
2022-11-12T07:34:26.123Z,22.80
2022-11-12T07:37:12.536Z,21.20
2022-11-12T07:40:00.098Z,21.20
2022-11-12T07:42:46.646Z,21.40
2022-11-12T07:45:33.091Z,20.30
2022-11-12T07:48:19.462Z,21.80
2022-11-12T07:51:11.673Z,22.80
2022-11-12T07:54:00.127Z,24.10
2022-11-12T07:56:46.914Z,20.80
2022-11-12T07:59:33.633Z,33.00
2022-11-12T08:02:20.192Z,22.00
2022-11-12T08:05:13.576Z,22.10
2022-11-12T08:08:02.948Z,20.80
2022-11-12T08:10:58.037Z,20.10
2022-11-12T08:13:44.198Z,24.90
2022-11-12T08:16:30.869Z,20.20
2022-11-12T08:19:17.521Z,25.20
2022-11-12T08:22:03.859Z,23.00
2022-11-12T08:24:50.204Z,20.00
2022-11-12T08:27:36.688Z,19.40
2022-11-12T08:30:23.137Z,22.40
2022-11-12T08:33:09.746Z,22.40
2022-11-12T08:35:56.601Z,22.10
2022-11-12T08:38:43.984Z,23.40
2022-11-12T08:41:30.500Z,24.50
2022-11-12T08:44:16.763Z,24.50
2022-11-12T08:47:03.354Z,24.50
2022-11-12T08:49:50.184Z,27.60
2022-11-12T08:52:36.651Z,24.00
2022-11-12T08:55:22.904Z,21.20
2022-11-12T08:58:10.876Z,24.60
2022-11-12T09:01:04.570Z,21.50
2022-11-12T09:03:50.866Z,21.60
2022-11-12T09:06:37.260Z,34.80
2022-11-12T09:09:23.798Z,30.10
2022-11-12T09:12:19.117Z,24.10
2022-11-12T09:15:36.396Z,24.40
2022-11-12T09:18:18.060Z,24.60
2022-11-12T09:21:08.750Z,31.40
2022-11-12T09:23:55.659Z,29.90
2022-11-12T09:26:41.973Z,23.50
2022-11-12T09:29:28.343Z,21.60
2022-11-12T09:32:14.566Z,20.20
2022-11-12T09:35:01.081Z,18.30
2022-11-12T09:37:47.546Z,23.70
2022-11-12T09:40:59.015Z,24.10
2022-11-12T09:43:56.124Z,22.90
2022-11-12T09:46:57.264Z,21.00
2022-11-12T09:52:48.922Z,25.80
2022-11-12T09:55:42.822Z,30.00
2022-11-12T09:58:29.850Z,28.80
2022-11-12T10:01:37.933Z,23.40
2022-11-12T10:04:43.660Z,26.70
2022-11-12T10:07:44.905Z,26.90
2022-11-12T10:10:42.013Z,27.70
2022-11-12T10:14:13.596Z,28.10
2022-11-12T10:17:21.722Z,28.10
2022-11-12T10:20:28.645Z,31.30
2022-11-12T10:23:20.433Z,24.70
2022-11-12T10:26:23.252Z,26.30
2022-11-12T10:29:37.657Z,23.70
2022-11-12T10:32:24.338Z,30.70
2022-11-12T10:35:23.514Z,27.10
2022-11-12T10:38:27.825Z,26.00
2022-11-12T10:41:30.961Z,29.80
2022-11-12T10:44:27.052Z,29.40
2022-11-12T10:47:33.010Z,36.10
2022-11-12T10:50:31.651Z,31.50
2022-11-12T10:53:33.793Z,30.40
2022-11-12T10:56:30.660Z,32.90
2022-11-12T10:59:25.058Z,29.70
2022-11-12T11:02:19.030Z,30.70
2022-11-12T11:05:58.669Z,34.40
2022-11-12T11:08:51.434Z,31.30
2022-11-12T11:11:37.956Z,36.30
2022-11-12T11:14:31.869Z,35.10
2022-11-12T11:17:19.290Z,31.70
2022-11-12T11:20:19.618Z,30.50
2022-11-12T11:23:28.907Z,30.80
2022-11-12T11:26:54.896Z,39.00
2022-11-12T11:30:15.335Z,33.00
2022-11-12T11:33:32.618Z,37.40
2022-11-12T11:36:38.425Z,29.50
2022-11-12T11:39:50.533Z,29.00
2022-11-12T11:43:13.596Z,26.30
2022-11-12T11:46:11.022Z,24.90
2022-11-12T11:49:34.434Z,23.80
2022-11-12T11:52:54.763Z,26.70
2022-11-12T11:55:53.163Z,24.40
2022-11-12T11:59:01.980Z,23.30
2022-11-12T12:02:00.112Z,27.30
2022-11-12T12:05:09.027Z,28.50
2022-11-12T12:08:09.929Z,25.70
2022-11-12T12:11:25.698Z,21.30
2022-11-12T12:14:24.248Z,23.40
2022-11-12T12:17:53.718Z,22.00
2022-11-12T12:21:14.591Z,25.20
2022-11-12T12:24:20.690Z,25.50
2022-11-12T12:27:19.271Z,25.00
2022-11-12T12:30:20.835Z,22.40
2022-11-12T12:33:25.425Z,23.70
2022-11-12T12:36:18.131Z,24.40
2022-11-12T12:39:47.731Z,24.00
2022-11-12T12:42:48.062Z,21.00
2022-11-12T12:45:41.866Z,23.10
2022-11-12T12:48:43.664Z,19.30
2022-11-12T12:51:33.645Z,25.40
2022-11-12T12:54:35.409Z,20.50
2022-11-12T13:00:38.830Z,19.80
2022-11-12T13:06:53.722Z,21.90
2022-11-12T13:09:40.446Z,18.20
2022-11-12T13:13:03.015Z,20.40
2022-11-12T13:15:53.978Z,19.40
2022-11-12T13:18:40.604Z,20.20
2022-11-12T13:21:29.042Z,23.00
2022-11-12T13:24:15.677Z,21.60
2022-11-12T13:27:01.853Z,27.00
2022-11-12T13:29:48.334Z,22.90
2022-11-12T13:32:46.992Z,22.80
2022-11-12T13:35:38.600Z,24.90
2022-11-12T13:38:26.282Z,23.10
2022-11-12T13:41:42.153Z,20.90
2022-11-12T13:44:29.653Z,19.80
2022-11-12T13:47:24.496Z,26.80
2022-11-12T13:50:19.626Z,22.50
2022-11-12T13:53:15.335Z,23.10
2022-11-12T13:56:01.778Z,21.70
2022-11-12T13:58:48.209Z,23.20
2022-11-12T14:01:34.514Z,21.10
2022-11-12T14:04:24.442Z,17.10
2022-11-12T14:08:02.077Z,20.00
2022-11-12T14:11:15.946Z,17.00
2022-11-12T14:14:37.615Z,17.80
2022-11-12T14:20:39.654Z,15.90
2022-11-12T14:23:26.725Z,17.80
2022-11-12T14:26:14.860Z,17.70
2022-11-12T14:29:01.609Z,20.70
2022-11-12T14:32:00.516Z,17.80
2022-11-12T14:34:47.199Z,24.50
2022-11-12T14:37:43.327Z,17.40
2022-11-12T14:40:35.619Z,19.50
2022-11-12T14:43:54.975Z,17.30
2022-11-12T14:46:55.514Z,20.40
2022-11-12T14:49:45.463Z,19.40
2022-11-12T14:52:39.842Z,18.40
2022-11-12T14:55:32.259Z,19.60
2022-11-12T14:58:22.010Z,16.30
2022-11-12T15:05:02.611Z,15.70
2022-11-12T15:07:58.542Z,17.00
2022-11-12T15:10:45.615Z,17.40
2022-11-12T15:13:40.602Z,14.20
2022-11-12T15:16:36.062Z,13.80
2022-11-12T15:19:27.797Z,12.50
2022-11-12T15:22:22.968Z,12.70
2022-11-12T15:25:26.727Z,12.70
2022-11-12T15:28:25.716Z,15.30
2022-11-12T15:31:21.868Z,15.20
2022-11-12T15:34:40.430Z,17.10
2022-11-12T15:37:34.522Z,14.20
2022-11-12T15:40:22.611Z,15.20
2022-11-12T15:43:20.468Z,19.30
2022-11-12T15:46:15.500Z,18.90
2022-11-12T15:49:01.843Z,22.20
2022-11-12T15:51:48.145Z,24.30
2022-11-12T15:54:40.661Z,21.20
2022-11-12T15:57:32.091Z,18.20
2022-11-12T16:00:25.381Z,16.90
2022-11-12T16:03:20.566Z,20.40
2022-11-12T16:06:12.244Z,15.60
2022-11-12T16:11:45.182Z,17.70
2022-11-12T16:14:31.949Z,14.30
2022-11-12T16:17:19.074Z,14.90
2022-11-12T16:20:17.318Z,18.90
2022-11-12T16:23:04.923Z,11.80
2022-11-12T16:25:51.327Z,16.90
2022-11-12T16:28:37.897Z,21.20
2022-11-12T16:31:27.303Z,13.30
2022-11-12T16:34:13.761Z,18.50
2022-11-12T16:37:00.086Z,14.80
2022-11-12T16:39:46.681Z,14.60
2022-11-12T16:42:34.009Z,17.40
2022-11-12T16:45:31.887Z,22.60
2022-11-12T16:48:22.909Z,20.60
2022-11-12T16:51:18.512Z,23.40
2022-11-12T16:54:05.513Z,22.50
2022-11-12T16:56:52.038Z,28.10
2022-11-12T16:59:38.949Z,21.30
2022-11-12T17:02:25.556Z,25.80
2022-11-12T17:05:30.484Z,25.00
2022-11-12T17:08:17.021Z,24.90
2022-11-12T17:11:10.858Z,25.80
2022-11-12T17:13:57.292Z,26.20
2022-11-12T17:16:45.125Z,22.90
2022-11-12T17:19:31.355Z,22.00
2022-11-12T17:22:20.252Z,21.20
2022-11-12T17:25:08.329Z,25.20
2022-11-12T17:27:54.706Z,23.30
2022-11-12T17:30:40.793Z,28.00
2022-11-12T17:33:27.418Z,23.10
2022-11-12T17:36:22.242Z,25.80
2022-11-12T17:39:13.199Z,21.40
2022-11-12T17:41:59.862Z,26.00
2022-11-12T17:44:46.484Z,24.70
2022-11-12T17:47:35.611Z,23.90
2022-11-12T17:50:25.942Z,24.30
2022-11-12T17:53:12.821Z,24.70
2022-11-12T17:55:59.722Z,23.70
2022-11-12T17:58:47.277Z,26.70
2022-11-12T18:01:35.013Z,24.20
2022-11-12T18:04:23.666Z,27.50
2022-11-12T18:07:10.173Z,25.80
2022-11-12T18:09:56.615Z,29.10
2022-11-12T18:12:43.165Z,27.90
2022-11-12T18:15:31.533Z,25.00
2022-11-12T18:18:19.763Z,26.70
2022-11-12T18:21:06.121Z,26.90
2022-11-12T18:23:52.888Z,27.60
2022-11-12T18:26:39.370Z,28.50
2022-11-12T18:29:25.878Z,29.10
2022-11-12T18:32:12.230Z,26.50
2022-11-12T18:34:58.842Z,24.80
2022-11-12T18:37:45.837Z,26.10
2022-11-12T18:40:31.950Z,26.50
2022-11-12T18:43:18.122Z,30.80
2022-11-12T18:46:06.066Z,31.50
2022-11-12T18:48:52.774Z,27.40
2022-11-12T18:51:39.726Z,29.50
2022-11-12T18:54:26.280Z,30.00
2022-11-12T18:57:12.436Z,29.40
2022-11-12T18:59:58.608Z,28.50
2022-11-12T19:02:44.864Z,26.20
2022-11-12T19:05:31.027Z,27.90
2022-11-12T19:08:19.320Z,26.60
2022-11-12T19:11:12.177Z,30.70
2022-11-12T19:13:58.856Z,27.70
2022-11-12T19:16:45.179Z,32.80
2022-11-12T19:19:31.305Z,36.10
2022-11-12T19:22:17.617Z,29.30
2022-11-12T19:25:04.155Z,28.10
2022-11-12T19:27:50.801Z,27.00
2022-11-12T19:30:37.031Z,32.60
2022-11-12T19:33:23.945Z,25.20
2022-11-12T19:36:14.648Z,31.50
2022-11-12T19:39:02.685Z,27.80
2022-11-12T19:41:49.225Z,30.80
2022-11-12T19:44:35.489Z,29.60
2022-11-12T19:47:21.805Z,28.70
2022-11-12T19:50:08.701Z,27.50
2022-11-12T19:52:55.526Z,27.10
2022-11-12T19:55:42.084Z,35.60
2022-11-12T19:58:31.703Z,38.50
2022-11-12T20:01:19.621Z,29.60
2022-11-12T20:04:05.871Z,28.00
2022-11-12T20:06:52.232Z,34.90
2022-11-12T20:09:39.145Z,27.60
2022-11-12T20:12:25.418Z,35.90
2022-11-12T20:15:11.970Z,36.50
2022-11-12T20:17:58.425Z,30.90
2022-11-12T20:20:56.201Z,35.60
2022-11-12T20:23:43.198Z,33.50
2022-11-12T20:26:29.499Z,33.50
2022-11-12T20:29:15.871Z,33.40
2022-11-12T20:32:02.772Z,34.10
2022-11-12T20:34:48.989Z,29.60
2022-11-12T20:37:35.176Z,28.80
2022-11-12T20:40:21.503Z,33.10
2022-11-12T20:43:07.920Z,33.60
2022-11-12T20:45:54.265Z,28.70
2022-11-12T20:48:43.497Z,30.60
2022-11-12T20:51:30.298Z,31.30
2022-11-12T20:54:16.661Z,31.80
2022-11-12T20:57:03.331Z,34.20
2022-11-12T20:59:51.533Z,36.00
2022-11-12T21:02:38.134Z,39.70
2022-11-12T21:05:25.231Z,36.00
2022-11-12T21:08:11.444Z,38.00
2022-11-12T21:11:00.394Z,40.20
2022-11-12T21:13:47.085Z,45.60
2022-11-12T21:16:33.916Z,35.80
2022-11-12T21:19:20.724Z,37.10
2022-11-12T21:22:07.279Z,41.50
2022-11-12T21:24:53.637Z,41.90
2022-11-12T21:27:39.945Z,40.10
2022-11-12T21:30:26.266Z,42.70
2022-11-12T21:33:13.000Z,44.00
2022-11-12T21:35:59.710Z,44.70
2022-11-12T21:38:46.829Z,43.00
2022-11-12T21:41:33.110Z,42.70
2022-11-12T21:44:19.414Z,47.00
2022-11-12T21:47:06.006Z,48.60
2022-11-12T21:49:52.304Z,48.60
2022-11-12T21:52:38.605Z,50.20
2022-11-12T21:55:25.122Z,50.90
2022-11-12T21:58:11.411Z,55.80
2022-11-12T22:01:20.121Z,49.70
2022-11-12T22:04:08.381Z,51.70
2022-11-12T22:06:55.412Z,49.90
2022-11-12T22:09:41.890Z,51.20
2022-11-12T22:12:28.330Z,52.90
2022-11-12T22:15:14.637Z,48.40
2022-11-12T22:18:00.980Z,52.90
2022-11-12T22:21:08.710Z,47.80
2022-11-12T22:23:57.788Z,44.70
2022-11-12T22:26:43.959Z,47.30
2022-11-12T22:29:30.535Z,43.70
2022-11-12T22:32:16.895Z,42.60
2022-11-12T22:35:03.983Z,42.20
2022-11-12T22:37:50.552Z,45.70
2022-11-12T22:40:37.207Z,45.60
2022-11-12T22:43:24.840Z,45.00
2022-11-12T22:46:15.513Z,48.90
2022-11-12T22:49:04.537Z,45.10
2022-11-12T22:51:50.962Z,46.10
2022-11-12T22:54:37.194Z,43.00
2022-11-12T22:57:23.657Z,46.40
2022-11-12T23:00:12.463Z,46.60
2022-11-12T23:02:58.942Z,43.20
2022-11-12T23:05:45.211Z,48.30
2022-11-12T23:08:32.028Z,48.20
2022-11-12T23:11:20.621Z,56.30
2022-11-12T23:14:07.368Z,52.20
2022-11-12T23:16:53.809Z,54.10
2022-11-12T23:19:40.099Z,52.70
2022-11-12T23:22:26.492Z,50.20
2022-11-12T23:25:13.153Z,49.30
2022-11-12T23:27:59.619Z,50.40
2022-11-12T23:30:50.481Z,54.00
2022-11-12T23:33:36.589Z,53.00
2022-11-12T23:36:25.813Z,46.30
2022-11-12T23:39:12.559Z,47.70
2022-11-12T23:41:58.968Z,45.60
2022-11-12T23:44:46.459Z,54.20
2022-11-12T23:47:32.735Z,56.10
2022-11-12T23:50:19.062Z,52.80
2022-11-12T23:53:05.335Z,51.20
2022-11-12T23:55:52.011Z,53.20
2022-11-12T23:58:40.007Z,58.10
